sensor_id;sensor_type;location;lat;lon;timestamp;P1;durP1;ratioP1;P2;durP2;ratioP2
19043;SDS011;9654;52.302;8.120;2023-05-29T00:02:07;21.43;;;4.67;;
19043;SDS011;9654;52.302;8.120;2023-05-29T00:04:33;22.13;;;3.70;;
19043;SDS011;9654;52.302;8.120;2023-05-29T00:07:01;22.10;;;3.70;;
19043;SDS011;9654;52.302;8.120;2023-05-29T00:09:30;26.27;;;3.63;;
19043;SDS011;9654;52.302;8.120;2023-05-29T00:11:57;23.57;;;4.43;;
19043;SDS011;9654;52.302;8.120;2023-05-29T00:14:24;17.07;;;4.00;;
19043;SDS011;9654;52.302;8.120;2023-05-29T00:16:57;21.33;;;3.17;;
19043;SDS011;9654;52.302;8.120;2023-05-29T00:19:25;16.17;;;3.83;;
19043;SDS011;9654;52.302;8.120;2023-05-29T00:21:57;22.70;;;4.27;;
19043;SDS011;9654;52.302;8.120;2023-05-29T00:24:24;32.13;;;3.93;;
19043;SDS011;9654;52.302;8.120;2023-05-29T00:26:52;20.17;;;4.00;;
19043;SDS011;9654;52.302;8.120;2023-05-29T00:29:19;17.80;;;3.07;;
19043;SDS011;9654;52.302;8.120;2023-05-29T00:31:47;18.00;;;3.43;;
19043;SDS011;9654;52.302;8.120;2023-05-29T00:34:14;18.87;;;3.77;;
19043;SDS011;9654;52.302;8.120;2023-05-29T00:36:40;21.63;;;4.13;;
19043;SDS011;9654;52.302;8.120;2023-05-29T00:39:07;14.60;;;3.40;;
19043;SDS011;9654;52.302;8.120;2023-05-29T00:41:34;23.50;;;4.20;;
19043;SDS011;9654;52.302;8.120;2023-05-29T00:44:03;23.87;;;3.50;;
19043;SDS011;9654;52.302;8.120;2023-05-29T00:46:30;18.17;;;3.33;;
19043;SDS011;9654;52.302;8.120;2023-05-29T00:48:58;21.10;;;3.60;;
19043;SDS011;9654;52.302;8.120;2023-05-29T00:51:26;17.80;;;3.77;;
19043;SDS011;9654;52.302;8.120;2023-05-29T00:53:53;21.07;;;4.20;;
19043;SDS011;9654;52.302;8.120;2023-05-29T00:56:21;12.80;;;3.27;;
19043;SDS011;9654;52.302;8.120;2023-05-29T00:58:48;22.77;;;3.80;;
19043;SDS011;9654;52.302;8.120;2023-05-29T01:01:18;18.87;;;3.40;;
19043;SDS011;9654;52.302;8.120;2023-05-29T01:03:46;20.13;;;3.43;;
19043;SDS011;9654;52.302;8.120;2023-05-29T01:06:14;12.43;;;4.77;;
19043;SDS011;9654;52.302;8.120;2023-05-29T01:08:40;18.50;;;3.17;;
19043;SDS011;9654;52.302;8.120;2023-05-29T01:11:08;19.30;;;3.60;;
19043;SDS011;9654;52.302;8.120;2023-05-29T01:13:46;19.37;;;3.43;;
19043;SDS011;9654;52.302;8.120;2023-05-29T01:16:16;22.93;;;4.43;;
19043;SDS011;9654;52.302;8.120;2023-05-29T01:18:51;17.70;;;3.93;;
19043;SDS011;9654;52.302;8.120;2023-05-29T01:21:26;16.80;;;3.60;;
19043;SDS011;9654;52.302;8.120;2023-05-29T01:24:12;16.47;;;3.30;;
19043;SDS011;9654;52.302;8.120;2023-05-29T01:26:49;21.23;;;3.80;;
19043;SDS011;9654;52.302;8.120;2023-05-29T01:29:18;27.17;;;4.80;;
19043;SDS011;9654;52.302;8.120;2023-05-29T01:31:48;25.77;;;3.83;;
19043;SDS011;9654;52.302;8.120;2023-05-29T01:34:17;20.90;;;4.40;;
19043;SDS011;9654;52.302;8.120;2023-05-29T01:36:44;17.30;;;3.57;;
19043;SDS011;9654;52.302;8.120;2023-05-29T01:39:12;24.60;;;5.23;;
19043;SDS011;9654;52.302;8.120;2023-05-29T01:41:39;16.63;;;3.67;;
19043;SDS011;9654;52.302;8.120;2023-05-29T01:44:08;22.77;;;3.70;;
19043;SDS011;9654;52.302;8.120;2023-05-29T01:46:36;20.30;;;4.17;;
19043;SDS011;9654;52.302;8.120;2023-05-29T01:49:04;14.33;;;3.60;;
19043;SDS011;9654;52.302;8.120;2023-05-29T01:51:31;18.10;;;3.70;;
19043;SDS011;9654;52.302;8.120;2023-05-29T01:53:58;29.93;;;4.87;;
19043;SDS011;9654;52.302;8.120;2023-05-29T01:56:26;16.17;;;3.00;;
19043;SDS011;9654;52.302;8.120;2023-05-29T01:58:54;12.03;;;3.50;;
19043;SDS011;9654;52.302;8.120;2023-05-29T02:01:22;14.10;;;3.80;;
19043;SDS011;9654;52.302;8.120;2023-05-29T02:03:50;22.27;;;3.80;;
19043;SDS011;9654;52.302;8.120;2023-05-29T02:06:17;28.57;;;5.37;;
19043;SDS011;9654;52.302;8.120;2023-05-29T02:08:44;19.53;;;3.63;;
19043;SDS011;9654;52.302;8.120;2023-05-29T02:11:11;23.93;;;4.33;;
19043;SDS011;9654;52.302;8.120;2023-05-29T02:13:38;13.50;;;3.07;;
19043;SDS011;9654;52.302;8.120;2023-05-29T02:16:05;23.40;;;3.50;;
19043;SDS011;9654;52.302;8.120;2023-05-29T02:18:33;22.53;;;3.93;;
19043;SDS011;9654;52.302;8.120;2023-05-29T02:21:00;19.63;;;3.47;;
19043;SDS011;9654;52.302;8.120;2023-05-29T02:23:27;19.97;;;4.97;;
19043;SDS011;9654;52.302;8.120;2023-05-29T02:25:54;20.80;;;3.70;;
19043;SDS011;9654;52.302;8.120;2023-05-29T02:28:20;17.30;;;4.30;;
19043;SDS011;9654;52.302;8.120;2023-05-29T02:30:47;23.90;;;4.43;;
19043;SDS011;9654;52.302;8.120;2023-05-29T02:33:14;23.00;;;4.97;;
19043;SDS011;9654;52.302;8.120;2023-05-29T02:35:42;26.23;;;3.87;;
19043;SDS011;9654;52.302;8.120;2023-05-29T02:38:09;17.70;;;3.50;;
19043;SDS011;9654;52.302;8.120;2023-05-29T02:40:35;17.97;;;3.67;;
19043;SDS011;9654;52.302;8.120;2023-05-29T02:43:02;21.47;;;3.40;;
19043;SDS011;9654;52.302;8.120;2023-05-29T02:45:29;17.10;;;4.37;;
19043;SDS011;9654;52.302;8.120;2023-05-29T02:47:55;19.40;;;4.57;;
19043;SDS011;9654;52.302;8.120;2023-05-29T02:50:22;17.13;;;3.87;;
19043;SDS011;9654;52.302;8.120;2023-05-29T02:52:50;20.33;;;4.33;;
19043;SDS011;9654;52.302;8.120;2023-05-29T02:55:17;23.63;;;4.50;;
19043;SDS011;9654;52.302;8.120;2023-05-29T02:57:44;18.97;;;4.03;;
19043;SDS011;9654;52.302;8.120;2023-05-29T03:00:11;15.93;;;3.83;;
19043;SDS011;9654;52.302;8.120;2023-05-29T03:02:38;20.70;;;4.50;;
19043;SDS011;9654;52.302;8.120;2023-05-29T03:05:05;17.07;;;4.40;;
19043;SDS011;9654;52.302;8.120;2023-05-29T03:07:33;35.30;;;4.47;;
19043;SDS011;9654;52.302;8.120;2023-05-29T03:10:01;24.83;;;4.00;;
19043;SDS011;9654;52.302;8.120;2023-05-29T03:12:28;19.03;;;3.77;;
19043;SDS011;9654;52.302;8.120;2023-05-29T03:14:55;26.53;;;4.73;;
19043;SDS011;9654;52.302;8.120;2023-05-29T03:17:22;17.87;;;4.40;;
19043;SDS011;9654;52.302;8.120;2023-05-29T03:19:49;23.53;;;5.37;;
19043;SDS011;9654;52.302;8.120;2023-05-29T03:22:16;21.20;;;3.83;;
19043;SDS011;9654;52.302;8.120;2023-05-29T03:24:43;24.53;;;4.23;;
19043;SDS011;9654;52.302;8.120;2023-05-29T03:27:11;17.70;;;3.60;;
19043;SDS011;9654;52.302;8.120;2023-05-29T03:29:39;17.53;;;4.40;;
19043;SDS011;9654;52.302;8.120;2023-05-29T03:32:06;21.60;;;5.03;;
19043;SDS011;9654;52.302;8.120;2023-05-29T03:34:33;19.17;;;3.43;;
19043;SDS011;9654;52.302;8.120;2023-05-29T03:37:00;20.33;;;4.17;;
19043;SDS011;9654;52.302;8.120;2023-05-29T03:39:28;18.47;;;4.67;;
19043;SDS011;9654;52.302;8.120;2023-05-29T03:41:54;15.37;;;4.57;;
19043;SDS011;9654;52.302;8.120;2023-05-29T03:44:23;19.27;;;3.77;;
19043;SDS011;9654;52.302;8.120;2023-05-29T03:46:51;22.30;;;3.70;;
19043;SDS011;9654;52.302;8.120;2023-05-29T03:49:18;24.37;;;6.27;;
19043;SDS011;9654;52.302;8.120;2023-05-29T03:51:45;20.03;;;4.60;;
19043;SDS011;9654;52.302;8.120;2023-05-29T03:54:11;24.30;;;4.43;;
19043;SDS011;9654;52.302;8.120;2023-05-29T03:56:38;20.77;;;3.30;;
19043;SDS011;9654;52.302;8.120;2023-05-29T03:59:05;33.03;;;4.40;;
19043;SDS011;9654;52.302;8.120;2023-05-29T04:01:33;26.83;;;4.80;;
19043;SDS011;9654;52.302;8.120;2023-05-29T04:04:00;18.70;;;3.80;;
19043;SDS011;9654;52.302;8.120;2023-05-29T04:06:27;24.90;;;4.43;;
19043;SDS011;9654;52.302;8.120;2023-05-29T04:08:54;24.20;;;4.80;;
19043;SDS011;9654;52.302;8.120;2023-05-29T04:11:21;17.20;;;3.60;;
19043;SDS011;9654;52.302;8.120;2023-05-29T04:13:48;17.00;;;4.50;;
19043;SDS011;9654;52.302;8.120;2023-05-29T04:16:15;23.20;;;4.57;;
19043;SDS011;9654;52.302;8.120;2023-05-29T04:18:43;21.90;;;4.77;;
19043;SDS011;9654;52.302;8.120;2023-05-29T04:21:10;31.07;;;5.33;;
19043;SDS011;9654;52.302;8.120;2023-05-29T04:23:37;19.50;;;4.50;;
19043;SDS011;9654;52.302;8.120;2023-05-29T04:26:04;26.03;;;5.57;;
19043;SDS011;9654;52.302;8.120;2023-05-29T04:28:31;17.83;;;3.73;;
19043;SDS011;9654;52.302;8.120;2023-05-29T04:30:58;25.97;;;5.23;;
19043;SDS011;9654;52.302;8.120;2023-05-29T04:33:25;22.03;;;3.70;;
19043;SDS011;9654;52.302;8.120;2023-05-29T04:35:54;22.80;;;4.40;;
19043;SDS011;9654;52.302;8.120;2023-05-29T04:38:21;21.90;;;4.10;;
19043;SDS011;9654;52.302;8.120;2023-05-29T04:40:50;24.10;;;4.10;;
19043;SDS011;9654;52.302;8.120;2023-05-29T04:43:17;26.53;;;4.10;;
19043;SDS011;9654;52.302;8.120;2023-05-29T04:45:44;22.13;;;4.90;;
19043;SDS011;9654;52.302;8.120;2023-05-29T04:48:10;26.90;;;5.00;;
19043;SDS011;9654;52.302;8.120;2023-05-29T04:50:37;17.33;;;3.40;;
19043;SDS011;9654;52.302;8.120;2023-05-29T04:53:05;17.73;;;3.50;;
19043;SDS011;9654;52.302;8.120;2023-05-29T04:55:32;19.37;;;4.03;;
19043;SDS011;9654;52.302;8.120;2023-05-29T04:57:59;18.57;;;3.37;;
19043;SDS011;9654;52.302;8.120;2023-05-29T05:00:26;10.67;;;2.93;;
19043;SDS011;9654;52.302;8.120;2023-05-29T05:02:53;21.43;;;3.70;;
19043;SDS011;9654;52.302;8.120;2023-05-29T05:05:20;22.73;;;4.53;;
19043;SDS011;9654;52.302;8.120;2023-05-29T05:07:47;16.67;;;3.03;;
19043;SDS011;9654;52.302;8.120;2023-05-29T05:10:15;22.13;;;4.07;;
19043;SDS011;9654;52.302;8.120;2023-05-29T05:12:42;23.93;;;3.67;;
19043;SDS011;9654;52.302;8.120;2023-05-29T05:15:09;12.90;;;3.43;;
19043;SDS011;9654;52.302;8.120;2023-05-29T05:17:36;16.87;;;3.90;;
19043;SDS011;9654;52.302;8.120;2023-05-29T05:20:03;19.00;;;4.07;;
19043;SDS011;9654;52.302;8.120;2023-05-29T05:22:31;22.47;;;4.17;;
19043;SDS011;9654;52.302;8.120;2023-05-29T05:24:57;15.70;;;3.00;;
19043;SDS011;9654;52.302;8.120;2023-05-29T05:27:26;19.77;;;3.87;;
19043;SDS011;9654;52.302;8.120;2023-05-29T05:29:53;18.07;;;3.33;;
19043;SDS011;9654;52.302;8.120;2023-05-29T05:32:20;17.83;;;4.07;;
19043;SDS011;9654;52.302;8.120;2023-05-29T05:34:47;16.93;;;4.70;;
19043;SDS011;9654;52.302;8.120;2023-05-29T05:37:13;13.13;;;3.23;;
19043;SDS011;9654;52.302;8.120;2023-05-29T05:39:40;18.27;;;2.97;;
19043;SDS011;9654;52.302;8.120;2023-05-29T05:42:07;18.20;;;3.70;;
19043;SDS011;9654;52.302;8.120;2023-05-29T05:44:35;24.57;;;3.27;;
19043;SDS011;9654;52.302;8.120;2023-05-29T05:47:02;16.97;;;3.63;;
19043;SDS011;9654;52.302;8.120;2023-05-29T05:49:29;14.40;;;3.63;;
19043;SDS011;9654;52.302;8.120;2023-05-29T05:51:56;20.37;;;3.60;;
19043;SDS011;9654;52.302;8.120;2023-05-29T05:54:23;15.23;;;3.30;;
19043;SDS011;9654;52.302;8.120;2023-05-29T05:56:49;13.30;;;3.47;;
19043;SDS011;9654;52.302;8.120;2023-05-29T05:59:16;19.00;;;3.13;;
19043;SDS011;9654;52.302;8.120;2023-05-29T06:01:44;18.40;;;3.30;;
19043;SDS011;9654;52.302;8.120;2023-05-29T06:04:11;18.80;;;3.93;;
19043;SDS011;9654;52.302;8.120;2023-05-29T06:06:38;18.83;;;3.57;;
19043;SDS011;9654;52.302;8.120;2023-05-29T06:09:06;19.03;;;3.60;;
19043;SDS011;9654;52.302;8.120;2023-05-29T06:11:33;13.60;;;4.03;;
19043;SDS011;9654;52.302;8.120;2023-05-29T06:14:00;17.60;;;3.63;;
19043;SDS011;9654;52.302;8.120;2023-05-29T06:16:26;8.20;;;2.40;;
19043;SDS011;9654;52.302;8.120;2023-05-29T06:18:54;15.57;;;2.90;;
19043;SDS011;9654;52.302;8.120;2023-05-29T06:21:21;18.23;;;3.77;;
19043;SDS011;9654;52.302;8.120;2023-05-29T06:23:48;25.97;;;5.73;;
19043;SDS011;9654;52.302;8.120;2023-05-29T06:26:15;18.73;;;3.63;;
19043;SDS011;9654;52.302;8.120;2023-05-29T06:28:41;14.23;;;3.40;;
19043;SDS011;9654;52.302;8.120;2023-05-29T06:31:08;14.63;;;3.77;;
19043;SDS011;9654;52.302;8.120;2023-05-29T06:33:35;19.73;;;4.60;;
19043;SDS011;9654;52.302;8.120;2023-05-29T06:36:04;19.17;;;3.60;;
19043;SDS011;9654;52.302;8.120;2023-05-29T06:38:31;16.03;;;3.30;;
19043;SDS011;9654;52.302;8.120;2023-05-29T06:40:58;17.93;;;3.20;;
19043;SDS011;9654;52.302;8.120;2023-05-29T06:43:27;17.20;;;3.57;;
19043;SDS011;9654;52.302;8.120;2023-05-29T06:45:54;15.70;;;3.87;;
19043;SDS011;9654;52.302;8.120;2023-05-29T06:48:21;17.80;;;3.80;;
19043;SDS011;9654;52.302;8.120;2023-05-29T06:50:48;18.73;;;3.43;;
19043;SDS011;9654;52.302;8.120;2023-05-29T06:53:16;21.97;;;3.73;;
19043;SDS011;9654;52.302;8.120;2023-05-29T06:55:42;18.87;;;3.30;;
19043;SDS011;9654;52.302;8.120;2023-05-29T06:58:09;10.73;;;4.03;;
19043;SDS011;9654;52.302;8.120;2023-05-29T07:00:36;18.43;;;3.40;;
19043;SDS011;9654;52.302;8.120;2023-05-29T07:03:03;18.47;;;4.17;;
19043;SDS011;9654;52.302;8.120;2023-05-29T07:05:29;14.80;;;3.03;;
19043;SDS011;9654;52.302;8.120;2023-05-29T07:07:56;14.27;;;3.47;;
19043;SDS011;9654;52.302;8.120;2023-05-29T07:10:24;18.07;;;2.93;;
19043;SDS011;9654;52.302;8.120;2023-05-29T07:12:51;15.43;;;2.97;;
19043;SDS011;9654;52.302;8.120;2023-05-29T07:15:18;17.80;;;4.30;;
19043;SDS011;9654;52.302;8.120;2023-05-29T07:17:44;14.47;;;3.20;;
19043;SDS011;9654;52.302;8.120;2023-05-29T07:20:11;13.23;;;2.87;;
19043;SDS011;9654;52.302;8.120;2023-05-29T07:22:40;9.60;;;2.87;;
19043;SDS011;9654;52.302;8.120;2023-05-29T07:25:07;17.27;;;3.07;;
19043;SDS011;9654;52.302;8.120;2023-05-29T07:27:35;17.47;;;3.03;;
19043;SDS011;9654;52.302;8.120;2023-05-29T07:30:02;11.13;;;2.83;;
19043;SDS011;9654;52.302;8.120;2023-05-29T07:32:30;17.57;;;3.50;;
19043;SDS011;9654;52.302;8.120;2023-05-29T07:34:57;14.27;;;3.70;;
19043;SDS011;9654;52.302;8.120;2023-05-29T07:37:24;15.97;;;3.00;;
19043;SDS011;9654;52.302;8.120;2023-05-29T07:39:50;17.97;;;3.73;;
19043;SDS011;9654;52.302;8.120;2023-05-29T07:42:17;12.17;;;3.00;;
19043;SDS011;9654;52.302;8.120;2023-05-29T07:44:45;19.17;;;3.17;;
19043;SDS011;9654;52.302;8.120;2023-05-29T07:47:13;12.33;;;3.47;;
19043;SDS011;9654;52.302;8.120;2023-05-29T07:49:40;14.07;;;3.03;;
19043;SDS011;9654;52.302;8.120;2023-05-29T07:52:06;17.10;;;3.70;;
19043;SDS011;9654;52.302;8.120;2023-05-29T07:54:33;15.83;;;2.67;;
19043;SDS011;9654;52.302;8.120;2023-05-29T07:57:00;17.23;;;3.30;;
19043;SDS011;9654;52.302;8.120;2023-05-29T07:59:28;12.80;;;2.83;;
19043;SDS011;9654;52.302;8.120;2023-05-29T08:01:57;20.07;;;3.10;;
19043;SDS011;9654;52.302;8.120;2023-05-29T08:04:25;13.27;;;3.00;;
19043;SDS011;9654;52.302;8.120;2023-05-29T08:06:52;19.37;;;3.13;;
19043;SDS011;9654;52.302;8.120;2023-05-29T08:09:19;13.03;;;3.20;;
19043;SDS011;9654;52.302;8.120;2023-05-29T08:11:46;11.17;;;2.97;;
19043;SDS011;9654;52.302;8.120;2023-05-29T08:14:13;11.60;;;2.90;;
19043;SDS011;9654;52.302;8.120;2023-05-29T08:16:40;8.07;;;2.47;;
19043;SDS011;9654;52.302;8.120;2023-05-29T08:19:08;9.17;;;2.80;;
19043;SDS011;9654;52.302;8.120;2023-05-29T08:21:35;15.33;;;2.70;;
19043;SDS011;9654;52.302;8.120;2023-05-29T08:24:03;14.23;;;3.30;;
19043;SDS011;9654;52.302;8.120;2023-05-29T08:26:31;12.10;;;2.93;;
19043;SDS011;9654;52.302;8.120;2023-05-29T08:28:58;8.63;;;2.90;;
19043;SDS011;9654;52.302;8.120;2023-05-29T08:31:25;12.60;;;2.87;;
19043;SDS011;9654;52.302;8.120;2023-05-29T08:33:52;16.90;;;2.90;;
19043;SDS011;9654;52.302;8.120;2023-05-29T08:36:20;9.97;;;3.17;;
19043;SDS011;9654;52.302;8.120;2023-05-29T08:38:47;12.43;;;2.97;;
19043;SDS011;9654;52.302;8.120;2023-05-29T08:41:25;13.57;;;2.97;;
19043;SDS011;9654;52.302;8.120;2023-05-29T08:44:07;13.63;;;3.10;;
19043;SDS011;9654;52.302;8.120;2023-05-29T08:46:39;17.07;;;3.37;;
19043;SDS011;9654;52.302;8.120;2023-05-29T08:49:06;13.33;;;3.60;;
19043;SDS011;9654;52.302;8.120;2023-05-29T08:51:37;11.67;;;2.90;;
19043;SDS011;9654;52.302;8.120;2023-05-29T08:54:08;11.10;;;2.80;;
19043;SDS011;9654;52.302;8.120;2023-05-29T08:56:36;13.63;;;3.83;;
19043;SDS011;9654;52.302;8.120;2023-05-29T08:59:02;13.33;;;3.17;;
19043;SDS011;9654;52.302;8.120;2023-05-29T09:01:31;11.00;;;2.40;;
19043;SDS011;9654;52.302;8.120;2023-05-29T09:03:58;12.97;;;2.77;;
19043;SDS011;9654;52.302;8.120;2023-05-29T09:06:24;16.93;;;3.10;;
19043;SDS011;9654;52.302;8.120;2023-05-29T09:08:53;11.00;;;2.90;;
19043;SDS011;9654;52.302;8.120;2023-05-29T09:11:21;8.67;;;2.60;;
19043;SDS011;9654;52.302;8.120;2023-05-29T09:13:48;12.90;;;3.07;;
19043;SDS011;9654;52.302;8.120;2023-05-29T09:16:15;14.17;;;2.87;;
19043;SDS011;9654;52.302;8.120;2023-05-29T09:18:42;12.80;;;3.10;;
19043;SDS011;9654;52.302;8.120;2023-05-29T09:21:10;11.50;;;3.20;;
19043;SDS011;9654;52.302;8.120;2023-05-29T09:23:53;13.73;;;2.67;;
19043;SDS011;9654;52.302;8.120;2023-05-29T09:26:21;11.97;;;2.93;;
19043;SDS011;9654;52.302;8.120;2023-05-29T09:28:48;11.27;;;3.37;;
19043;SDS011;9654;52.302;8.120;2023-05-29T09:31:15;10.20;;;2.70;;
19043;SDS011;9654;52.302;8.120;2023-05-29T09:33:46;12.80;;;3.10;;
19043;SDS011;9654;52.302;8.120;2023-05-29T09:36:19;6.50;;;2.30;;
19043;SDS011;9654;52.302;8.120;2023-05-29T09:38:46;12.57;;;2.87;;
19043;SDS011;9654;52.302;8.120;2023-05-29T09:41:15;10.90;;;2.93;;
19043;SDS011;9654;52.302;8.120;2023-05-29T09:43:47;11.73;;;2.70;;
19043;SDS011;9654;52.302;8.120;2023-05-29T09:46:15;14.50;;;2.67;;
19043;SDS011;9654;52.302;8.120;2023-05-29T09:48:42;10.70;;;2.87;;
19043;SDS011;9654;52.302;8.120;2023-05-29T09:51:18;15.13;;;3.17;;
19043;SDS011;9654;52.302;8.120;2023-05-29T09:53:47;14.97;;;3.53;;
19043;SDS011;9654;52.302;8.120;2023-05-29T09:56:17;8.50;;;2.93;;
19043;SDS011;9654;52.302;8.120;2023-05-29T09:58:43;12.47;;;2.63;;
19043;SDS011;9654;52.302;8.120;2023-05-29T10:01:11;15.63;;;3.17;;
19043;SDS011;9654;52.302;8.120;2023-05-29T10:03:38;14.70;;;3.07;;
19043;SDS011;9654;52.302;8.120;2023-05-29T10:06:07;14.63;;;3.50;;
19043;SDS011;9654;52.302;8.120;2023-05-29T10:08:37;12.10;;;2.93;;
19043;SDS011;9654;52.302;8.120;2023-05-29T10:11:07;10.30;;;2.97;;
19043;SDS011;9654;52.302;8.120;2023-05-29T10:13:42;8.73;;;2.60;;
19043;SDS011;9654;52.302;8.120;2023-05-29T10:16:13;9.80;;;3.17;;
19043;SDS011;9654;52.302;8.120;2023-05-29T10:18:42;10.17;;;2.67;;
19043;SDS011;9654;52.302;8.120;2023-05-29T10:21:11;10.70;;;3.30;;
19043;SDS011;9654;52.302;8.120;2023-05-29T10:23:39;13.60;;;2.73;;
19043;SDS011;9654;52.302;8.120;2023-05-29T10:26:10;9.60;;;3.27;;
19043;SDS011;9654;52.302;8.120;2023-05-29T10:28:43;10.73;;;3.23;;
19043;SDS011;9654;52.302;8.120;2023-05-29T10:31:16;11.67;;;3.30;;
19043;SDS011;9654;52.302;8.120;2023-05-29T10:33:50;10.53;;;2.97;;
19043;SDS011;9654;52.302;8.120;2023-05-29T10:36:28;11.33;;;3.20;;
19043;SDS011;9654;52.302;8.120;2023-05-29T10:39:01;9.97;;;3.20;;
19043;SDS011;9654;52.302;8.120;2023-05-29T10:41:32;10.00;;;2.93;;
19043;SDS011;9654;52.302;8.120;2023-05-29T10:44:00;16.63;;;3.97;;
19043;SDS011;9654;52.302;8.120;2023-05-29T10:49:30;11.63;;;3.63;;
19043;SDS011;9654;52.302;8.120;2023-05-29T10:51:57;11.93;;;3.10;;
19043;SDS011;9654;52.302;8.120;2023-05-29T10:54:25;9.60;;;2.80;;
19043;SDS011;9654;52.302;8.120;2023-05-29T10:56:54;15.53;;;3.30;;
19043;SDS011;9654;52.302;8.120;2023-05-29T10:59:23;13.27;;;3.37;;
19043;SDS011;9654;52.302;8.120;2023-05-29T11:01:52;15.40;;;3.17;;
19043;SDS011;9654;52.302;8.120;2023-05-29T11:04:26;20.73;;;4.03;;
19043;SDS011;9654;52.302;8.120;2023-05-29T11:06:55;12.80;;;4.10;;
19043;SDS011;9654;52.302;8.120;2023-05-29T11:09:29;12.07;;;3.03;;
19043;SDS011;9654;52.302;8.120;2023-05-29T11:12:12;10.70;;;3.47;;
19043;SDS011;9654;52.302;8.120;2023-05-29T11:14:55;14.13;;;3.30;;
19043;SDS011;9654;52.302;8.120;2023-05-29T11:17:29;13.80;;;3.70;;
19043;SDS011;9654;52.302;8.120;2023-05-29T11:19:57;13.17;;;3.20;;
19043;SDS011;9654;52.302;8.120;2023-05-29T11:22:32;14.83;;;3.60;;
19043;SDS011;9654;52.302;8.120;2023-05-29T11:25:13;10.13;;;3.13;;
19043;SDS011;9654;52.302;8.120;2023-05-29T11:27:40;12.17;;;3.30;;
19043;SDS011;9654;52.302;8.120;2023-05-29T11:30:09;8.17;;;2.57;;
19043;SDS011;9654;52.302;8.120;2023-05-29T11:32:36;9.97;;;2.90;;
19043;SDS011;9654;52.302;8.120;2023-05-29T11:35:07;14.77;;;3.50;;
19043;SDS011;9654;52.302;8.120;2023-05-29T11:37:35;11.70;;;3.63;;
19043;SDS011;9654;52.302;8.120;2023-05-29T11:40:02;11.67;;;3.10;;
19043;SDS011;9654;52.302;8.120;2023-05-29T11:42:31;12.53;;;3.20;;
19043;SDS011;9654;52.302;8.120;2023-05-29T11:45:10;8.93;;;2.83;;
19043;SDS011;9654;52.302;8.120;2023-05-29T11:47:53;13.50;;;2.90;;
19043;SDS011;9654;52.302;8.120;2023-05-29T11:50:21;12.27;;;3.37;;
19043;SDS011;9654;52.302;8.120;2023-05-29T11:52:49;8.43;;;2.53;;
19043;SDS011;9654;52.302;8.120;2023-05-29T11:55:16;12.80;;;3.37;;
19043;SDS011;9654;52.302;8.120;2023-05-29T11:57:44;9.50;;;2.90;;
19043;SDS011;9654;52.302;8.120;2023-05-29T12:00:14;12.37;;;3.17;;
19043;SDS011;9654;52.302;8.120;2023-05-29T12:02:41;9.90;;;2.67;;
19043;SDS011;9654;52.302;8.120;2023-05-29T12:05:11;8.70;;;3.07;;
19043;SDS011;9654;52.302;8.120;2023-05-29T12:07:46;8.40;;;2.83;;
19043;SDS011;9654;52.302;8.120;2023-05-29T12:10:14;9.97;;;3.30;;
19043;SDS011;9654;52.302;8.120;2023-05-29T12:12:42;14.07;;;3.07;;
19043;SDS011;9654;52.302;8.120;2023-05-29T12:15:14;8.47;;;3.23;;
19043;SDS011;9654;52.302;8.120;2023-05-29T12:17:42;13.30;;;3.20;;
19043;SDS011;9654;52.302;8.120;2023-05-29T12:20:10;10.87;;;3.87;;
19043;SDS011;9654;52.302;8.120;2023-05-29T12:22:40;9.73;;;2.80;;
19043;SDS011;9654;52.302;8.120;2023-05-29T12:25:09;12.03;;;3.93;;
19043;SDS011;9654;52.302;8.120;2023-05-29T12:27:37;11.47;;;4.80;;
19043;SDS011;9654;52.302;8.120;2023-05-29T12:30:08;13.80;;;3.10;;
19043;SDS011;9654;52.302;8.120;2023-05-29T12:32:38;16.30;;;3.63;;
19043;SDS011;9654;52.302;8.120;2023-05-29T12:35:12;12.60;;;4.57;;
19043;SDS011;9654;52.302;8.120;2023-05-29T12:37:43;12.47;;;3.17;;
19043;SDS011;9654;52.302;8.120;2023-05-29T12:40:14;11.43;;;3.13;;
19043;SDS011;9654;52.302;8.120;2023-05-29T12:42:42;10.77;;;3.00;;
19043;SDS011;9654;52.302;8.120;2023-05-29T12:45:09;14.77;;;3.47;;
19043;SDS011;9654;52.302;8.120;2023-05-29T12:47:38;8.60;;;2.80;;
19043;SDS011;9654;52.302;8.120;2023-05-29T12:50:21;12.50;;;2.80;;
19043;SDS011;9654;52.302;8.120;2023-05-29T12:52:55;11.10;;;3.43;;
19043;SDS011;9654;52.302;8.120;2023-05-29T12:55:23;11.20;;;3.90;;
19043;SDS011;9654;52.302;8.120;2023-05-29T12:57:50;18.40;;;4.13;;
19043;SDS011;9654;52.302;8.120;2023-05-29T13:00:18;13.80;;;3.37;;
19043;SDS011;9654;52.302;8.120;2023-05-29T13:02:47;12.03;;;3.43;;
19043;SDS011;9654;52.302;8.120;2023-05-29T13:05:15;13.13;;;3.43;;
19043;SDS011;9654;52.302;8.120;2023-05-29T13:07:43;10.33;;;3.20;;
19043;SDS011;9654;52.302;8.120;2023-05-29T13:10:11;13.93;;;2.70;;
19043;SDS011;9654;52.302;8.120;2023-05-29T13:12:37;10.10;;;2.93;;
19043;SDS011;9654;52.302;8.120;2023-05-29T13:15:05;10.73;;;3.80;;
19043;SDS011;9654;52.302;8.120;2023-05-29T13:17:32;11.33;;;5.13;;
19043;SDS011;9654;52.302;8.120;2023-05-29T13:20:01;8.20;;;3.00;;
19043;SDS011;9654;52.302;8.120;2023-05-29T13:22:31;14.43;;;2.97;;
19043;SDS011;9654;52.302;8.120;2023-05-29T13:24:58;16.67;;;3.80;;
19043;SDS011;9654;52.302;8.120;2023-05-29T13:27:25;7.73;;;2.90;;
19043;SDS011;9654;52.302;8.120;2023-05-29T13:29:52;12.80;;;2.53;;
19043;SDS011;9654;52.302;8.120;2023-05-29T13:32:19;15.67;;;2.77;;
19043;SDS011;9654;52.302;8.120;2023-05-29T13:34:46;12.47;;;3.33;;
19043;SDS011;9654;52.302;8.120;2023-05-29T13:37:14;7.97;;;2.67;;
19043;SDS011;9654;52.302;8.120;2023-05-29T13:39:41;8.60;;;2.37;;
19043;SDS011;9654;52.302;8.120;2023-05-29T13:42:08;7.90;;;2.40;;
19043;SDS011;9654;52.302;8.120;2023-05-29T13:44:36;7.43;;;2.50;;
19043;SDS011;9654;52.302;8.120;2023-05-29T13:49:31;8.23;;;2.50;;
19043;SDS011;9654;52.302;8.120;2023-05-29T13:51:58;11.30;;;2.47;;
19043;SDS011;9654;52.302;8.120;2023-05-29T13:54:26;8.27;;;2.87;;
19043;SDS011;9654;52.302;8.120;2023-05-29T13:56:54;9.33;;;2.57;;
19043;SDS011;9654;52.302;8.120;2023-05-29T13:59:22;11.10;;;2.73;;
19043;SDS011;9654;52.302;8.120;2023-05-29T14:01:49;9.70;;;2.50;;
19043;SDS011;9654;52.302;8.120;2023-05-29T14:04:16;8.17;;;3.13;;
19043;SDS011;9654;52.302;8.120;2023-05-29T14:06:43;10.67;;;2.70;;
19043;SDS011;9654;52.302;8.120;2023-05-29T14:09:10;7.33;;;2.47;;
19043;SDS011;9654;52.302;8.120;2023-05-29T14:11:39;7.17;;;2.30;;
19043;SDS011;9654;52.302;8.120;2023-05-29T14:14:06;12.63;;;2.93;;
19043;SDS011;9654;52.302;8.120;2023-05-29T14:16:33;13.50;;;2.80;;
19043;SDS011;9654;52.302;8.120;2023-05-29T14:19:00;8.30;;;2.57;;
19043;SDS011;9654;52.302;8.120;2023-05-29T14:21:27;9.87;;;2.80;;
19043;SDS011;9654;52.302;8.120;2023-05-29T14:23:54;9.47;;;3.03;;
19043;SDS011;9654;52.302;8.120;2023-05-29T14:26:21;11.40;;;3.20;;
19043;SDS011;9654;52.302;8.120;2023-05-29T14:28:50;13.10;;;2.90;;
19043;SDS011;9654;52.302;8.120;2023-05-29T14:31:16;15.37;;;2.83;;
19043;SDS011;9654;52.302;8.120;2023-05-29T14:33:43;10.27;;;3.17;;
19043;SDS011;9654;52.302;8.120;2023-05-29T14:36:10;11.87;;;2.60;;
19043;SDS011;9654;52.302;8.120;2023-05-29T14:38:38;11.30;;;2.47;;
19043;SDS011;9654;52.302;8.120;2023-05-29T14:41:06;14.13;;;6.63;;
19043;SDS011;9654;52.302;8.120;2023-05-29T14:43:32;7.53;;;2.33;;
19043;SDS011;9654;52.302;8.120;2023-05-29T14:46:01;7.10;;;2.07;;
19043;SDS011;9654;52.302;8.120;2023-05-29T14:48:28;9.03;;;2.63;;
19043;SDS011;9654;52.302;8.120;2023-05-29T14:50:54;9.60;;;2.93;;
19043;SDS011;9654;52.302;8.120;2023-05-29T14:53:21;7.13;;;2.60;;
19043;SDS011;9654;52.302;8.120;2023-05-29T14:55:48;9.27;;;2.43;;
19043;SDS011;9654;52.302;8.120;2023-05-29T14:58:15;10.80;;;2.67;;
19043;SDS011;9654;52.302;8.120;2023-05-29T15:00:42;8.20;;;2.87;;
19043;SDS011;9654;52.302;8.120;2023-05-29T15:03:10;6.53;;;2.07;;